createdAt,value
2017-08-06T00:00:56.675Z,17.00
2017-08-06T00:03:58.965Z,17.00
2017-08-06T00:07:00.454Z,17.00
2017-08-06T00:10:01.893Z,16.00
2017-08-06T00:13:03.400Z,16.90
2017-08-06T00:16:05.173Z,16.30
2017-08-06T00:19:06.648Z,17.10
2017-08-06T00:22:08.137Z,16.80
2017-08-06T00:25:09.694Z,15.40
2017-08-06T00:28:11.162Z,15.80
2017-08-06T00:31:13.379Z,16.90
2017-08-06T00:34:14.858Z,16.80
2017-08-06T00:37:16.529Z,16.10
2017-08-06T00:40:18.776Z,17.00
2017-08-06T00:43:20.291Z,17.00
2017-08-06T00:46:21.742Z,16.30
2017-08-06T00:49:23.248Z,15.70
2017-08-06T00:52:24.727Z,16.00
2017-08-06T00:55:26.920Z,16.80
2017-08-06T00:58:28.363Z,16.50
2017-08-06T01:01:29.868Z,15.70
2017-08-06T01:04:31.356Z,16.50
2017-08-06T01:07:32.773Z,16.60
2017-08-06T01:10:34.245Z,16.10
2017-08-06T01:13:35.776Z,15.80
2017-08-06T01:16:37.272Z,16.20
2017-08-06T01:19:38.763Z,15.60
2017-08-06T01:22:40.226Z,16.40
2017-08-06T01:25:41.731Z,15.70
2017-08-06T01:28:43.215Z,17.00
2017-08-06T01:31:44.657Z,16.30
2017-08-06T01:34:46.168Z,15.80
2017-08-06T01:37:48.390Z,16.70
2017-08-06T01:40:49.936Z,16.40
2017-08-06T01:43:51.444Z,15.10
2017-08-06T01:46:53.004Z,15.50
2017-08-06T01:49:54.527Z,15.40
2017-08-06T01:52:56.043Z,16.40
2017-08-06T01:55:57.564Z,16.00
2017-08-06T01:58:59.789Z,16.30
2017-08-06T02:02:01.322Z,15.60
2017-08-06T02:05:02.847Z,15.90
2017-08-06T02:08:05.089Z,16.40
2017-08-06T02:11:06.784Z,15.60
2017-08-06T02:14:09.012Z,16.30
2017-08-06T02:17:10.521Z,15.80
2017-08-06T02:20:12.014Z,15.60
2017-08-06T02:23:13.544Z,16.20
2017-08-06T02:26:15.023Z,15.40
2017-08-06T02:29:16.565Z,15.80
2017-08-06T02:32:18.002Z,16.10
2017-08-06T02:35:19.498Z,15.90
2017-08-06T02:38:21.128Z,15.30
2017-08-06T02:41:22.566Z,16.00
2017-08-06T02:44:24.047Z,15.80
2017-08-06T02:47:25.511Z,15.90
2017-08-06T02:50:27.047Z,15.70
2017-08-06T02:53:28.490Z,16.10
2017-08-06T02:56:29.949Z,14.70
2017-08-06T02:59:31.417Z,15.20
2017-08-06T03:02:32.945Z,16.00
2017-08-06T03:05:34.369Z,14.70
2017-08-06T03:08:35.854Z,15.60
2017-08-06T03:11:37.301Z,15.90
2017-08-06T03:14:38.842Z,15.10
2017-08-06T03:17:40.573Z,16.30
2017-08-06T03:20:42.758Z,15.80
2017-08-06T03:23:44.247Z,16.00
2017-08-06T03:26:45.699Z,15.00
2017-08-06T03:29:47.219Z,14.90
2017-08-06T03:32:48.692Z,14.70
2017-08-06T03:35:50.198Z,14.80
2017-08-06T03:38:52.463Z,15.80
2017-08-06T03:41:53.901Z,15.40
2017-08-06T03:44:55.727Z,15.70
2017-08-06T03:47:57.225Z,14.30
2017-08-06T03:50:58.633Z,14.80
2017-08-06T03:54:00.129Z,15.40
2017-08-06T03:57:01.600Z,15.10
2017-08-06T04:00:03.264Z,15.00
2017-08-06T04:03:05.470Z,15.60
2017-08-06T04:06:07.027Z,14.70
2017-08-06T04:09:08.511Z,15.80
2017-08-06T04:12:10.015Z,14.80
2017-08-06T04:15:11.468Z,14.50
2017-08-06T04:18:12.927Z,14.70
2017-08-06T04:21:14.670Z,14.80
2017-08-06T04:24:16.896Z,15.60
2017-08-06T04:27:18.377Z,15.50
2017-08-06T04:30:19.811Z,15.10
2017-08-06T04:33:21.356Z,14.90
2017-08-06T04:36:22.788Z,16.10
2017-08-06T04:39:24.296Z,15.10
2017-08-06T04:42:25.752Z,14.20
2017-08-06T04:45:27.978Z,15.50
2017-08-06T04:48:29.509Z,14.50
2017-08-06T04:51:31.083Z,14.80
2017-08-06T04:54:32.632Z,15.30
2017-08-06T04:57:34.071Z,14.70
2017-08-06T05:00:35.647Z,14.60
2017-08-06T05:03:37.101Z,15.10
2017-08-06T05:06:38.566Z,15.40
2017-08-06T05:09:40.258Z,15.30
2017-08-06T05:12:42.471Z,15.40
2017-08-06T05:15:43.963Z,14.90
2017-08-06T05:18:45.533Z,15.40
2017-08-06T05:21:47.720Z,15.40
2017-08-06T05:24:49.887Z,15.20
2017-08-06T05:27:51.376Z,14.70
2017-08-06T05:30:52.801Z,14.40
2017-08-06T05:33:54.279Z,14.40
2017-08-06T05:36:55.875Z,14.30
2017-08-06T05:39:58.148Z,15.20
2017-08-06T05:42:59.775Z,14.60
2017-08-06T05:46:01.243Z,13.90
2017-08-06T05:49:02.796Z,15.30
2017-08-06T05:52:04.276Z,15.50
2017-08-06T05:55:06.526Z,15.50
2017-08-06T05:58:07.992Z,14.70
2017-08-06T06:01:10.243Z,15.40
2017-08-06T06:04:11.719Z,15.40
2017-08-06T06:07:13.991Z,15.60
2017-08-06T06:10:15.454Z,15.80
2017-08-06T06:13:17.712Z,15.40
2017-08-06T06:16:20.010Z,15.50
2017-08-06T06:19:21.515Z,15.40
2017-08-06T06:22:22.976Z,15.50
2017-08-06T06:25:24.401Z,15.40
2017-08-06T06:28:25.945Z,15.60
2017-08-06T06:31:27.402Z,15.20
2017-08-06T06:34:29.011Z,14.40
2017-08-06T06:37:30.513Z,15.50
2017-08-06T06:40:32.006Z,15.40
2017-08-06T06:43:33.516Z,14.80
2017-08-06T06:46:35.004Z,15.90
2017-08-06T06:49:36.708Z,15.30
2017-08-06T06:52:38.201Z,15.90
2017-08-06T06:55:39.780Z,15.70
2017-08-06T06:58:41.214Z,15.30
2017-08-06T07:01:42.713Z,14.10
2017-08-06T07:04:44.898Z,15.90
2017-08-06T07:07:47.191Z,15.80
2017-08-06T07:10:48.687Z,15.90
2017-08-06T07:13:50.154Z,15.90
2017-08-06T07:16:51.873Z,15.90
2017-08-06T07:19:53.408Z,15.10
2017-08-06T07:22:55.037Z,15.10
2017-08-06T07:25:57.195Z,16.30
2017-08-06T07:28:58.702Z,15.80
2017-08-06T07:32:00.129Z,16.20
2017-08-06T07:35:02.405Z,16.10
2017-08-06T07:38:03.974Z,15.90
2017-08-06T07:41:05.519Z,16.50
2017-08-06T07:44:07.294Z,14.80
2017-08-06T07:47:08.771Z,15.90
2017-08-06T07:50:10.317Z,15.90
2017-08-06T07:53:11.813Z,15.70
2017-08-06T07:56:14.085Z,16.90
2017-08-06T07:59:15.598Z,15.60
2017-08-06T08:02:17.098Z,15.50
2017-08-06T08:05:18.997Z,17.10
2017-08-06T08:08:20.477Z,17.20
2017-08-06T08:11:22.102Z,15.80
2017-08-06T08:14:23.651Z,16.10
2017-08-06T08:17:25.172Z,15.80
2017-08-06T08:20:26.714Z,16.60
2017-08-06T08:23:28.257Z,16.60
2017-08-06T08:26:29.735Z,16.60
2017-08-06T08:29:31.300Z,17.70
2017-08-06T08:32:33.640Z,17.80
2017-08-06T08:35:35.130Z,16.80
2017-08-06T08:38:36.647Z,16.60
2017-08-06T08:41:38.151Z,16.30
2017-08-06T08:44:39.666Z,16.40
2017-08-06T08:47:41.190Z,17.90
2017-08-06T08:50:42.747Z,17.70
2017-08-06T08:53:44.204Z,17.50
2017-08-06T08:56:45.713Z,16.90
2017-08-06T08:59:48.064Z,17.60
2017-08-06T09:02:49.519Z,18.00
2017-08-06T09:05:51.242Z,17.80
2017-08-06T09:08:52.760Z,17.30
2017-08-06T09:11:54.328Z,17.40
2017-08-06T09:14:55.743Z,17.00
2017-08-06T09:17:58.017Z,18.10
2017-08-06T09:21:00.160Z,18.40
2017-08-06T09:24:02.409Z,18.40
2017-08-06T09:27:03.861Z,18.50
2017-08-06T09:30:05.344Z,18.60
2017-08-06T09:33:06.862Z,18.80
2017-08-06T09:36:15.264Z,19.00
2017-08-06T09:39:16.677Z,19.10
2017-08-06T09:42:18.073Z,19.20
2017-08-06T09:45:19.502Z,18.60
2017-08-06T09:48:21.606Z,18.50
2017-08-06T09:51:23.072Z,18.50
2017-08-06T09:54:24.621Z,18.80
2017-08-06T09:57:26.017Z,19.10
2017-08-06T10:00:28.272Z,18.80
2017-08-06T10:03:29.671Z,18.80
2017-08-06T10:06:31.082Z,18.90
2017-08-06T10:09:32.434Z,18.90
2017-08-06T10:12:33.849Z,19.30
2017-08-06T10:15:35.209Z,19.50
2017-08-06T10:18:38.161Z,19.70
2017-08-06T10:21:39.828Z,19.90
2017-08-06T10:24:41.254Z,19.90
2017-08-06T10:27:43.411Z,20.10
2017-08-06T10:30:44.801Z,20.00
2017-08-06T10:33:46.230Z,20.50
2017-08-06T10:36:48.335Z,20.50
2017-08-06T10:39:49.790Z,20.50
2017-08-06T10:42:51.163Z,20.80
2017-08-06T10:45:52.548Z,20.40
2017-08-06T10:48:54.689Z,20.40
2017-08-06T10:51:56.119Z,20.40
2017-08-06T10:54:57.512Z,20.20
2017-08-06T10:57:58.901Z,20.20
2017-08-06T11:01:00.238Z,20.10
2017-08-06T11:04:02.358Z,20.50
2017-08-06T11:07:03.743Z,20.40
2017-08-06T11:10:05.931Z,20.50
2017-08-06T11:13:07.389Z,20.20
2017-08-06T11:16:08.741Z,20.30
2017-08-06T11:19:10.124Z,20.50
2017-08-06T11:22:11.514Z,20.50
2017-08-06T11:25:13.649Z,21.20
2017-08-06T11:28:15.017Z,21.20
2017-08-06T11:31:16.393Z,21.30
2017-08-06T11:34:17.730Z,21.30
2017-08-06T11:37:19.121Z,21.40
2017-08-06T11:40:20.728Z,21.60
2017-08-06T11:43:22.116Z,21.90
2017-08-06T11:46:23.660Z,22.40
2017-08-06T11:49:25.078Z,22.40
2017-08-06T11:52:26.606Z,22.10
2017-08-06T11:55:27.945Z,22.30
2017-08-06T11:58:29.354Z,22.60
2017-08-06T12:01:30.737Z,22.60
2017-08-06T12:04:32.177Z,22.80
2017-08-06T12:07:33.567Z,22.40
2017-08-06T12:10:35.018Z,22.30
2017-08-06T12:13:36.557Z,22.30
2017-08-06T12:16:37.973Z,22.20
2017-08-06T12:19:40.135Z,22.50
2017-08-06T12:22:42.255Z,22.70
2017-08-06T12:25:43.651Z,22.70
2017-08-06T12:28:45.822Z,22.60
2017-08-06T12:31:48.021Z,22.60
2017-08-06T12:34:49.441Z,22.60
2017-08-06T12:37:51.621Z,22.80
2017-08-06T12:40:53.765Z,22.80
2017-08-06T12:43:55.129Z,22.80
2017-08-06T12:46:56.549Z,22.80
2017-08-06T12:49:57.961Z,23.10
2017-08-06T12:52:59.441Z,23.20
2017-08-06T12:56:00.837Z,23.70
2017-08-06T12:59:02.262Z,23.70
2017-08-06T13:02:03.782Z,23.60
2017-08-06T13:05:05.195Z,23.30
2017-08-06T13:08:07.374Z,23.80
2017-08-06T13:11:09.498Z,23.60
2017-08-06T13:14:10.955Z,23.60
2017-08-06T13:17:12.385Z,22.60
2017-08-06T13:20:13.881Z,22.00
2017-08-06T13:23:16.157Z,22.50
2017-08-06T13:26:18.287Z,23.10
2017-08-06T13:29:19.772Z,23.00
2017-08-06T13:32:21.935Z,24.00
2017-08-06T13:35:24.106Z,23.60
2017-08-06T13:38:26.253Z,23.60
2017-08-06T13:41:27.733Z,23.00
2017-08-06T13:44:30.253Z,24.10
2017-08-06T13:47:31.644Z,23.40
2017-08-06T13:50:33.071Z,23.50
2017-08-06T13:53:34.567Z,24.30
2017-08-06T13:56:36.787Z,24.40
2017-08-06T13:59:38.264Z,24.40
2017-08-06T14:02:39.701Z,24.80
2017-08-06T14:05:41.291Z,24.70
2017-08-06T14:08:43.443Z,24.90
2017-08-06T14:11:44.860Z,24.80
2017-08-06T14:14:46.242Z,24.80
2017-08-06T14:17:47.668Z,24.90
2017-08-06T14:20:49.025Z,25.10
2017-08-06T14:23:50.422Z,24.50
2017-08-06T14:26:51.821Z,24.70
2017-08-06T14:29:53.287Z,24.90
2017-08-06T14:32:54.867Z,25.10
2017-08-06T14:35:56.993Z,25.00
2017-08-06T14:38:58.395Z,24.20
2017-08-06T14:41:59.764Z,24.90
2017-08-06T14:45:01.893Z,24.60
2017-08-06T14:48:03.420Z,24.60
2017-08-06T14:51:04.808Z,24.80
2017-08-06T14:54:06.221Z,25.10
2017-08-06T14:57:07.608Z,25.10
2017-08-06T15:00:09.073Z,24.50
2017-08-06T15:03:10.449Z,24.90
2017-08-06T15:06:11.894Z,24.90
2017-08-06T15:09:13.281Z,25.10
2017-08-06T15:12:14.745Z,25.00
2017-08-06T15:15:16.165Z,25.00
2017-08-06T15:18:17.564Z,25.00
2017-08-06T15:21:18.990Z,24.70
2017-08-06T15:24:20.371Z,24.40
2017-08-06T15:27:21.770Z,24.90
2017-08-06T15:30:23.167Z,24.80
2017-08-06T15:33:24.607Z,25.50
2017-08-06T15:36:25.968Z,25.80
2017-08-06T15:39:27.489Z,25.70
2017-08-06T15:42:28.867Z,25.10
2017-08-06T15:45:30.405Z,25.20
2017-08-06T15:48:31.864Z,25.40
2017-08-06T15:51:33.336Z,25.40
2017-08-06T15:54:34.769Z,25.10
2017-08-06T15:57:36.126Z,24.90
2017-08-06T16:00:37.555Z,24.60
2017-08-06T16:03:38.896Z,23.20
2017-08-06T16:06:40.432Z,23.90
2017-08-06T16:09:41.852Z,23.60
2017-08-06T16:12:43.303Z,23.20
2017-08-06T16:15:44.703Z,22.90
2017-08-06T16:18:46.145Z,22.70
2017-08-06T16:21:47.682Z,22.30
2017-08-06T16:24:49.842Z,22.00
2017-08-06T16:27:51.334Z,22.00
2017-08-06T16:30:52.726Z,21.90
2017-08-06T16:33:54.181Z,21.90
2017-08-06T16:36:55.570Z,21.80
2017-08-06T16:39:57.761Z,21.70
2017-08-06T16:42:59.292Z,21.80
2017-08-06T16:46:01.490Z,22.00
2017-08-06T16:49:02.957Z,22.00
2017-08-06T16:52:04.401Z,21.90
2017-08-06T16:55:05.848Z,21.90
2017-08-06T16:58:07.269Z,21.90
2017-08-06T17:01:09.485Z,21.80
2017-08-06T17:04:10.934Z,21.70
2017-08-06T17:07:12.343Z,21.80
2017-08-06T17:10:14.611Z,21.70
2017-08-06T17:13:16.774Z,21.60
2017-08-06T17:16:19.120Z,21.50
2017-08-06T17:19:20.546Z,21.50
2017-08-06T17:22:22.071Z,20.40
2017-08-06T17:25:24.231Z,21.50
2017-08-06T17:28:26.397Z,21.50
2017-08-06T17:31:28.603Z,21.40
2017-08-06T17:34:30.153Z,21.40
2017-08-06T17:37:32.229Z,21.40
2017-08-06T17:40:33.633Z,21.20
2017-08-06T17:43:35.474Z,21.40
2017-08-06T17:46:37.646Z,21.20
2017-08-06T17:49:39.830Z,21.10
2017-08-06T17:52:41.302Z,21.10
2017-08-06T17:55:42.786Z,21.00
2017-08-06T17:58:44.244Z,20.80
2017-08-06T18:01:45.671Z,20.80
2017-08-06T18:04:47.240Z,20.80
2017-08-06T18:07:48.657Z,20.80
2017-08-06T18:10:50.284Z,20.80
2017-08-06T18:13:52.655Z,20.70
2017-08-06T18:16:54.929Z,20.80
2017-08-06T18:19:56.534Z,20.80
2017-08-06T18:23:00.071Z,20.70
2017-08-06T18:26:02.853Z,20.70
2017-08-06T18:29:05.112Z,20.50
2017-08-06T18:32:08.456Z,20.50
2017-08-06T18:35:10.013Z,20.50
2017-08-06T18:38:12.418Z,20.40
2017-08-06T18:41:14.879Z,20.30
2017-08-06T18:44:18.689Z,20.30
2017-08-06T18:47:20.835Z,20.20
2017-08-06T18:50:22.273Z,20.20
2017-08-06T18:53:23.700Z,20.10
2017-08-06T18:56:25.768Z,19.90
2017-08-06T18:59:27.638Z,20.10
2017-08-06T19:02:31.488Z,20.10
2017-08-06T19:05:34.479Z,20.00
2017-08-06T19:08:35.948Z,19.90
2017-08-06T19:11:38.301Z,19.90
2017-08-06T19:14:39.806Z,19.90
2017-08-06T19:17:42.300Z,19.70
2017-08-06T19:20:45.275Z,19.90
2017-08-06T19:23:46.866Z,19.80
2017-08-06T19:26:48.616Z,19.70
2017-08-06T19:29:51.784Z,19.60
2017-08-06T19:32:54.736Z,19.50
2017-08-06T19:35:56.895Z,19.60
2017-08-06T19:38:58.320Z,19.60
2017-08-06T19:42:01.225Z,19.40
2017-08-06T19:45:04.092Z,19.40
2017-08-06T19:48:06.310Z,19.30
2017-08-06T19:51:07.791Z,19.30
2017-08-06T19:54:09.267Z,19.20
2017-08-06T19:57:11.591Z,19.10
2017-08-06T20:00:14.135Z,19.00
2017-08-06T20:03:15.524Z,18.30
2017-08-06T20:06:17.681Z,19.00
2017-08-06T20:09:19.789Z,19.00
2017-08-06T20:12:21.190Z,19.00
2017-08-06T20:15:23.625Z,19.10
2017-08-06T20:18:27.060Z,19.10
2017-08-06T20:21:28.915Z,19.00
2017-08-06T20:24:30.492Z,19.00
2017-08-06T20:27:32.692Z,19.00
2017-08-06T20:30:34.910Z,18.80
2017-08-06T20:33:36.339Z,18.80
2017-08-06T20:36:38.510Z,18.80
2017-08-06T20:39:39.968Z,18.70
2017-08-06T20:42:41.388Z,18.50
2017-08-06T20:45:43.731Z,18.40
2017-08-06T20:48:47.375Z,18.40
2017-08-06T20:51:49.100Z,18.50
2017-08-06T20:54:50.584Z,17.20
2017-08-06T20:57:52.132Z,17.90
2017-08-06T21:00:53.669Z,18.90
2017-08-06T21:03:55.240Z,17.60
2017-08-06T21:06:57.461Z,18.20
2017-08-06T21:09:58.990Z,17.20
2017-08-06T21:13:00.524Z,18.00
2017-08-06T21:16:02.263Z,17.50
2017-08-06T21:19:04.564Z,18.10
2017-08-06T21:22:06.200Z,18.00
2017-08-06T21:25:07.699Z,17.60
2017-08-06T21:28:09.411Z,16.80
2017-08-06T21:31:11.045Z,18.50
2017-08-06T21:34:12.570Z,18.00
2017-08-06T21:37:14.218Z,16.80
2017-08-06T21:40:15.824Z,17.20
2017-08-06T21:43:17.358Z,16.90
2017-08-06T21:46:18.897Z,17.30
2017-08-06T21:49:20.407Z,16.80
2017-08-06T21:52:22.010Z,17.90
2017-08-06T21:55:23.572Z,16.60
2017-08-06T21:58:25.095Z,17.40
2017-08-06T22:01:27.432Z,17.60
2017-08-06T22:04:29.001Z,16.80
2017-08-06T22:07:30.624Z,17.90
2017-08-06T22:10:32.169Z,16.80
2017-08-06T22:13:33.666Z,16.50
2017-08-06T22:19:43.413Z,16.50
2017-08-06T22:22:44.936Z,18.00
2017-08-06T22:25:46.457Z,16.70
2017-08-06T22:28:48.008Z,17.20
2017-08-06T22:31:50.311Z,17.70
2017-08-06T22:34:51.830Z,17.70
2017-08-06T22:37:53.402Z,16.70
2017-08-06T22:40:55.684Z,17.50
2017-08-06T22:43:58.051Z,17.40
2017-08-06T22:47:00.306Z,17.50
2017-08-06T22:50:01.860Z,16.20
2017-08-06T22:53:03.408Z,17.20
2017-08-06T22:56:04.947Z,17.00
2017-08-06T22:59:06.784Z,17.10
2017-08-06T23:02:08.318Z,16.10
2017-08-06T23:05:10.143Z,16.70
2017-08-06T23:08:12.422Z,16.80
2017-08-06T23:11:13.955Z,17.10
2017-08-06T23:14:15.517Z,16.20
2017-08-06T23:17:17.063Z,16.90
2017-08-06T23:20:18.999Z,16.30
2017-08-06T23:23:20.496Z,17.00
2017-08-06T23:26:22.112Z,15.60
2017-08-06T23:29:23.620Z,17.40
2017-08-06T23:32:25.191Z,16.10
2017-08-06T23:35:26.700Z,15.80
2017-08-06T23:38:28.259Z,16.80
2017-08-06T23:41:29.781Z,15.70
2017-08-06T23:44:31.291Z,16.30
2017-08-06T23:47:33.606Z,16.60
2017-08-06T23:50:35.154Z,16.50
2017-08-06T23:53:36.831Z,16.20
2017-08-06T23:56:38.383Z,16.50
2017-08-06T23:59:39.963Z,16.10
